createdAt,value
2022-12-24T00:01:33.182Z,57.20
2022-12-24T00:03:59.795Z,57.20
2022-12-24T00:06:26.409Z,57.20
2022-12-24T00:08:53.087Z,57.20
2022-12-24T00:11:20.022Z,57.20
2022-12-24T00:13:46.808Z,57.20
2022-12-24T00:16:13.523Z,57.80
2022-12-24T00:18:45.550Z,57.20
2022-12-24T00:21:13.082Z,57.60
2022-12-24T00:23:40.318Z,57.20
2022-12-24T00:26:06.917Z,57.20
2022-12-24T00:28:33.510Z,57.20
2022-12-24T00:31:00.172Z,57.20
2022-12-24T00:33:26.803Z,57.20
2022-12-24T00:35:53.552Z,57.10
2022-12-24T00:38:20.318Z,57.20
2022-12-24T00:40:47.287Z,57.10
2022-12-24T00:43:13.893Z,57.10
2022-12-24T00:45:40.490Z,57.20
2022-12-24T00:48:07.092Z,57.20
2022-12-24T00:50:33.707Z,57.30
2022-12-24T00:53:00.290Z,57.30
2022-12-24T00:55:26.919Z,57.20
2022-12-24T00:57:53.567Z,57.20
2022-12-24T01:00:20.315Z,57.20
2022-12-24T01:02:47.172Z,57.20
2022-12-24T01:05:14.003Z,57.30
2022-12-24T01:07:44.459Z,57.40
2022-12-24T01:10:12.414Z,57.40
2022-12-24T01:12:39.065Z,57.40
2022-12-24T01:15:06.129Z,57.40
2022-12-24T01:17:33.535Z,57.40
2022-12-24T01:20:00.186Z,57.40
2022-12-24T01:22:26.779Z,57.40
2022-12-24T01:24:53.382Z,57.40
2022-12-24T01:27:19.988Z,57.40
2022-12-24T01:29:46.596Z,57.40
2022-12-24T01:32:13.196Z,57.40
2022-12-24T01:34:39.814Z,57.60
2022-12-24T01:37:06.406Z,57.60
2022-12-24T01:39:33.056Z,57.60
2022-12-24T01:42:18.364Z,57.60
2022-12-24T01:44:45.274Z,57.60
2022-12-24T01:47:23.852Z,57.60
2022-12-24T01:49:53.931Z,57.60
2022-12-24T01:52:22.521Z,57.50
2022-12-24T01:55:00.166Z,57.50
2022-12-24T01:57:51.600Z,57.40
2022-12-24T02:00:18.225Z,57.50
2022-12-24T02:02:46.493Z,57.50
2022-12-24T02:05:25.189Z,57.50
2022-12-24T02:07:51.800Z,57.50
2022-12-24T02:10:18.445Z,57.50
2022-12-24T02:12:45.358Z,57.50
2022-12-24T02:15:13.351Z,57.50
2022-12-24T02:18:03.868Z,57.50
2022-12-24T02:20:36.535Z,57.40
2022-12-24T02:23:18.123Z,57.50
2022-12-24T02:26:11.164Z,57.50
2022-12-24T02:28:43.765Z,57.40
2022-12-24T02:31:20.043Z,57.50
2022-12-24T02:33:54.630Z,57.50
2022-12-24T02:36:25.697Z,57.50
2022-12-24T02:38:56.708Z,57.40
2022-12-24T02:41:26.167Z,57.50
2022-12-24T02:43:53.332Z,57.50
2022-12-24T02:46:22.535Z,57.40
2022-12-24T02:48:49.337Z,57.40
2022-12-24T02:51:15.955Z,57.40
2022-12-24T02:53:42.533Z,57.50
2022-12-24T02:56:20.020Z,57.40
2022-12-24T02:58:55.439Z,57.40
2022-12-24T03:01:57.307Z,57.40
2022-12-24T03:04:42.072Z,57.30
2022-12-24T03:07:29.612Z,57.30
2022-12-24T03:10:30.176Z,57.30
2022-12-24T03:12:59.880Z,57.30
2022-12-24T03:15:26.678Z,57.30
2022-12-24T03:17:54.305Z,57.30
2022-12-24T03:20:34.045Z,57.40
2022-12-24T03:23:00.777Z,57.30
2022-12-24T03:25:27.370Z,57.30
2022-12-24T03:27:54.965Z,57.30
2022-12-24T03:30:21.584Z,57.30
2022-12-24T03:32:48.289Z,57.30
2022-12-24T03:35:14.979Z,57.30
2022-12-24T03:37:41.601Z,57.30
2022-12-24T03:40:08.668Z,57.30
2022-12-24T03:42:35.292Z,57.30
2022-12-24T03:45:01.884Z,57.30
2022-12-24T03:47:28.481Z,57.30
2022-12-24T03:49:55.084Z,57.30
2022-12-24T03:52:21.705Z,57.30
2022-12-24T03:54:48.285Z,57.30
2022-12-24T03:57:14.890Z,57.30
2022-12-24T03:59:41.519Z,57.30
2022-12-24T04:02:08.219Z,57.30
2022-12-24T04:04:36.812Z,57.30
2022-12-24T04:07:04.328Z,57.30
2022-12-24T04:09:30.964Z,57.30
2022-12-24T04:11:57.585Z,57.30
2022-12-24T04:14:24.216Z,57.30
2022-12-24T04:16:50.860Z,57.30
2022-12-24T04:19:17.577Z,57.30
2022-12-24T04:21:44.191Z,57.30
2022-12-24T04:24:10.812Z,57.30
2022-12-24T04:26:37.414Z,57.40
2022-12-24T04:29:04.033Z,57.40
2022-12-24T04:31:30.655Z,57.40
2022-12-24T04:33:57.261Z,57.40
2022-12-24T04:36:23.850Z,57.40
2022-12-24T04:38:50.484Z,57.40
2022-12-24T04:41:23.738Z,57.40
2022-12-24T04:43:51.870Z,57.40
2022-12-24T04:46:20.747Z,57.40
2022-12-24T04:48:48.685Z,57.40
2022-12-24T04:51:15.301Z,57.40
2022-12-24T04:53:42.032Z,57.40
2022-12-24T04:56:19.593Z,57.40
2022-12-24T04:58:46.206Z,57.40
2022-12-24T05:01:14.251Z,57.40
2022-12-24T05:03:40.997Z,57.30
2022-12-24T05:06:09.334Z,57.30
2022-12-24T05:08:35.938Z,57.40
2022-12-24T05:11:04.068Z,57.40
2022-12-24T05:13:39.104Z,57.40
2022-12-24T05:16:11.109Z,57.40
2022-12-24T05:18:37.835Z,57.30
2022-12-24T05:21:08.949Z,57.30
2022-12-24T05:23:54.098Z,57.30
2022-12-24T05:26:33.277Z,57.40
2022-12-24T05:29:00.627Z,57.40
2022-12-24T05:31:28.203Z,57.30
2022-12-24T05:33:55.679Z,57.30
2022-12-24T05:36:22.736Z,57.40
2022-12-24T05:38:49.595Z,57.30
2022-12-24T05:41:16.238Z,57.30
2022-12-24T05:43:42.837Z,57.30
2022-12-24T05:46:10.872Z,57.30
2022-12-24T05:48:37.524Z,57.30
2022-12-24T05:51:08.273Z,57.30
2022-12-24T05:53:35.140Z,57.30
2022-12-24T05:56:09.443Z,57.30
2022-12-24T05:58:36.259Z,57.30
2022-12-24T06:01:03.160Z,57.30
2022-12-24T06:03:30.394Z,57.30
2022-12-24T06:06:04.720Z,57.20
2022-12-24T06:08:31.487Z,57.20
2022-12-24T06:10:58.990Z,57.40
2022-12-24T06:13:25.706Z,57.70
2022-12-24T06:15:55.605Z,57.80
2022-12-24T06:18:22.361Z,57.70
2022-12-24T06:20:53.106Z,57.60
2022-12-24T06:23:19.807Z,57.50
2022-12-24T06:25:47.020Z,57.50
2022-12-24T06:28:13.759Z,57.50
2022-12-24T06:30:40.547Z,57.50
2022-12-24T06:33:07.141Z,57.50
2022-12-24T06:35:34.095Z,57.40
2022-12-24T06:38:00.704Z,57.50
2022-12-24T06:40:27.415Z,57.40
2022-12-24T06:42:54.010Z,57.40
2022-12-24T06:45:20.665Z,57.40
2022-12-24T06:47:47.276Z,57.40
2022-12-24T06:50:13.934Z,57.40
2022-12-24T06:52:40.577Z,57.40
2022-12-24T06:55:07.764Z,57.40
2022-12-24T06:57:34.370Z,57.40
2022-12-24T07:00:00.987Z,57.40
2022-12-24T07:02:27.638Z,57.40
2022-12-24T07:04:54.309Z,57.30
2022-12-24T07:07:20.919Z,57.40
2022-12-24T07:09:47.553Z,57.40
2022-12-24T07:12:14.203Z,57.40
2022-12-24T07:14:40.815Z,57.40
2022-12-24T07:17:07.487Z,57.40
2022-12-24T07:19:34.302Z,57.40
2022-12-24T07:22:00.916Z,57.40
2022-12-24T07:24:27.556Z,57.30
2022-12-24T07:26:54.148Z,57.40
2022-12-24T07:29:20.901Z,57.40
2022-12-24T07:31:47.554Z,57.40
2022-12-24T07:34:14.248Z,57.40
2022-12-24T07:36:40.864Z,57.50
2022-12-24T07:39:07.457Z,57.50
2022-12-24T07:41:39.793Z,57.50
2022-12-24T07:44:11.804Z,57.50
2022-12-24T07:46:38.464Z,57.50
2022-12-24T07:49:05.111Z,57.50
2022-12-24T07:51:31.726Z,57.50
2022-12-24T07:53:58.379Z,57.50
2022-12-24T07:56:24.990Z,57.50
2022-12-24T07:58:51.724Z,57.50
2022-12-24T08:01:18.677Z,57.60
2022-12-24T08:03:45.563Z,57.00
2022-12-24T08:06:12.288Z,56.40
2022-12-24T08:08:38.896Z,56.00
2022-12-24T08:11:06.263Z,55.60
2022-12-24T08:13:32.999Z,55.30
2022-12-24T08:15:59.730Z,54.80
2022-12-24T08:18:26.423Z,53.00
2022-12-24T08:20:53.035Z,44.80
2022-12-24T08:23:19.689Z,44.20
2022-12-24T08:25:47.203Z,44.20
2022-12-24T08:28:14.537Z,45.70
2022-12-24T08:30:41.144Z,47.30
2022-12-24T08:33:07.838Z,48.80
2022-12-24T08:35:34.559Z,50.00
2022-12-24T08:38:01.169Z,50.70
2022-12-24T08:40:27.780Z,51.50
2022-12-24T08:42:54.448Z,53.10
2022-12-24T08:45:21.174Z,52.50
2022-12-24T08:47:47.765Z,53.30
2022-12-24T08:50:14.555Z,54.10
2022-12-24T08:52:41.161Z,53.90
2022-12-24T08:55:08.307Z,54.00
2022-12-24T08:57:37.768Z,54.30
2022-12-24T09:00:07.775Z,54.80
2022-12-24T09:02:34.623Z,55.00
2022-12-24T09:05:01.383Z,55.00
2022-12-24T09:07:27.982Z,55.20
2022-12-24T09:09:54.608Z,55.20
2022-12-24T09:12:21.208Z,55.20
2022-12-24T09:14:47.870Z,55.50
2022-12-24T09:17:14.472Z,55.60
2022-12-24T09:19:41.074Z,55.50
2022-12-24T09:22:07.662Z,55.60
2022-12-24T09:24:36.063Z,55.80
2022-12-24T09:27:03.890Z,55.80
2022-12-24T09:29:31.253Z,55.80
2022-12-24T09:31:57.991Z,55.90
2022-12-24T09:34:30.180Z,55.80
2022-12-24T09:36:57.408Z,56.50
2022-12-24T09:39:23.990Z,56.00
2022-12-24T09:42:03.841Z,56.00
2022-12-24T09:44:58.928Z,56.00
2022-12-24T09:47:33.444Z,56.00
2022-12-24T09:50:01.216Z,55.90
2022-12-24T09:52:36.443Z,56.10
2022-12-24T09:55:12.214Z,56.10
2022-12-24T09:57:39.468Z,56.10
2022-12-24T10:00:11.691Z,56.40
2022-12-24T10:02:38.385Z,56.50
2022-12-24T10:05:06.536Z,56.20
2022-12-24T10:07:41.031Z,56.00
2022-12-24T10:10:22.816Z,56.10
2022-12-24T10:13:07.583Z,56.10
2022-12-24T10:15:38.455Z,56.20
2022-12-24T10:18:48.824Z,56.30
2022-12-24T10:21:31.008Z,56.30
2022-12-24T10:24:24.514Z,56.40
2022-12-24T10:27:08.298Z,55.40
2022-12-24T10:29:36.435Z,55.40
2022-12-24T10:32:09.117Z,55.20
2022-12-24T10:34:41.042Z,55.30
2022-12-24T10:37:09.576Z,55.20
2022-12-24T10:39:36.163Z,55.40
2022-12-24T10:42:02.758Z,55.50
2022-12-24T10:44:31.741Z,55.60
2022-12-24T10:46:59.407Z,56.30
2022-12-24T10:49:32.114Z,56.20
2022-12-24T10:52:03.010Z,56.20
2022-12-24T10:54:31.337Z,56.80
2022-12-24T10:56:59.307Z,56.60
2022-12-24T10:59:29.688Z,56.70
2022-12-24T11:01:57.714Z,56.70
2022-12-24T11:04:29.453Z,56.60
2022-12-24T11:06:56.982Z,57.00
2022-12-24T11:09:34.798Z,57.00
2022-12-24T11:12:08.674Z,57.10
2022-12-24T11:14:37.350Z,57.10
2022-12-24T11:17:03.981Z,57.10
2022-12-24T11:19:35.591Z,57.10
2022-12-24T11:22:37.824Z,57.00
2022-12-24T11:25:05.902Z,56.80
2022-12-24T11:27:42.160Z,56.90
2022-12-24T11:30:23.777Z,56.90
2022-12-24T11:33:16.628Z,56.90
2022-12-24T11:35:51.618Z,56.90
2022-12-24T11:38:21.113Z,56.80
2022-12-24T11:40:58.761Z,56.80
2022-12-24T11:43:25.367Z,56.80
2022-12-24T11:45:53.080Z,56.80
2022-12-24T11:48:29.911Z,56.90
2022-12-24T11:51:00.979Z,56.80
2022-12-24T11:53:50.432Z,56.90
2022-12-24T11:56:29.001Z,57.10
2022-12-24T11:58:58.873Z,57.20
2022-12-24T12:01:33.242Z,57.20
2022-12-24T12:04:02.328Z,57.30
2022-12-24T12:06:33.006Z,57.20
2022-12-24T12:09:21.308Z,57.40
2022-12-24T12:11:56.934Z,57.30
2022-12-24T12:14:31.783Z,57.60
2022-12-24T12:17:06.653Z,57.80
2022-12-24T12:19:43.321Z,57.60
2022-12-24T12:22:17.397Z,57.80
2022-12-24T12:24:46.190Z,57.50
2022-12-24T12:27:35.983Z,57.90
2022-12-24T12:30:05.534Z,58.10
2022-12-24T12:32:41.952Z,57.70
2022-12-24T12:35:32.006Z,57.60
2022-12-24T12:38:04.234Z,57.70
2022-12-24T12:40:40.921Z,57.60
2022-12-24T12:43:23.009Z,57.60
2022-12-24T12:45:54.973Z,58.10
2022-12-24T12:48:25.342Z,57.90
2022-12-24T12:51:15.700Z,57.90
2022-12-24T12:53:55.247Z,57.90
2022-12-24T12:56:31.383Z,57.80
2022-12-24T12:59:14.543Z,57.90
2022-12-24T13:02:17.102Z,57.90
2022-12-24T13:05:17.138Z,58.10
2022-12-24T13:08:03.110Z,57.70
2022-12-24T13:10:35.968Z,57.60
2022-12-24T13:13:33.432Z,57.70
2022-12-24T13:16:30.291Z,57.60
2022-12-24T13:19:17.999Z,57.60
2022-12-24T13:21:45.470Z,57.60
2022-12-24T13:24:16.562Z,57.60
2022-12-24T13:26:43.218Z,57.60
2022-12-24T13:29:35.570Z,57.60
2022-12-24T13:32:20.366Z,57.60
2022-12-24T13:34:50.420Z,57.60
2022-12-24T13:37:32.708Z,57.50
2022-12-24T13:40:08.482Z,57.70
2022-12-24T13:43:01.250Z,57.70
2022-12-24T13:45:31.107Z,57.80
2022-12-24T13:48:02.150Z,57.90
2022-12-24T13:50:35.654Z,58.00
2022-12-24T13:53:02.250Z,57.90
2022-12-24T13:55:28.866Z,57.80
2022-12-24T13:58:02.955Z,57.70
2022-12-24T14:00:32.478Z,57.80
2022-12-24T14:03:14.213Z,57.70
2022-12-24T14:05:47.225Z,57.60
2022-12-24T14:08:23.854Z,57.50
2022-12-24T14:10:58.847Z,57.60
2022-12-24T14:13:40.726Z,57.60
2022-12-24T14:16:23.547Z,57.60
2022-12-24T14:19:01.132Z,57.50
2022-12-24T14:21:36.549Z,57.40
2022-12-24T14:24:05.299Z,57.20
2022-12-24T14:26:35.287Z,57.10
2022-12-24T14:29:07.810Z,57.30
2022-12-24T14:31:34.455Z,57.30
2022-12-24T14:34:12.988Z,57.30
2022-12-24T14:36:40.059Z,57.50
2022-12-24T14:39:07.202Z,57.70
2022-12-24T14:42:21.545Z,57.80
2022-12-24T14:45:12.937Z,57.90
2022-12-24T14:47:48.579Z,58.00
2022-12-24T14:50:31.226Z,58.20
2022-12-24T14:53:18.649Z,58.10
2022-12-24T14:55:47.048Z,58.20
2022-12-24T14:58:32.784Z,58.20
2022-12-24T15:01:17.117Z,58.10
2022-12-24T15:03:43.908Z,58.10
2022-12-24T15:06:11.956Z,58.10
2022-12-24T15:08:40.403Z,58.00
2022-12-24T15:11:08.443Z,58.10
2022-12-24T15:13:40.161Z,58.20
2022-12-24T15:16:09.943Z,58.30
2022-12-24T15:18:38.830Z,58.40
2022-12-24T15:21:05.982Z,58.40
2022-12-24T15:23:34.672Z,58.40
2022-12-24T15:26:21.575Z,58.50
2022-12-24T15:28:48.222Z,58.60
2022-12-24T15:31:22.343Z,58.60
2022-12-24T15:33:50.837Z,58.50
2022-12-24T15:39:17.410Z,58.60
2022-12-24T15:42:03.500Z,58.60
2022-12-24T15:44:35.778Z,58.70
2022-12-24T15:47:03.112Z,58.60
2022-12-24T15:49:31.624Z,58.60
2022-12-24T15:52:05.672Z,58.90
2022-12-24T15:54:32.291Z,58.90
2022-12-24T15:56:58.895Z,58.90
2022-12-24T15:59:32.186Z,58.90
2022-12-24T16:02:22.668Z,58.70
2022-12-24T16:04:49.485Z,58.70
2022-12-24T16:07:26.051Z,58.60
2022-12-24T16:09:52.674Z,58.60
2022-12-24T16:12:21.847Z,58.50
2022-12-24T16:14:50.788Z,58.70
2022-12-24T16:17:24.792Z,58.60
2022-12-24T16:19:53.129Z,58.50
2022-12-24T16:22:32.841Z,58.60
2022-12-24T16:25:00.009Z,58.60
2022-12-24T16:27:26.706Z,58.60
2022-12-24T16:29:53.481Z,58.70
2022-12-24T16:32:31.391Z,58.70
2022-12-24T16:34:58.304Z,58.60
2022-12-24T16:37:24.987Z,58.60
2022-12-24T16:39:52.813Z,58.50
2022-12-24T16:42:38.184Z,58.50
2022-12-24T16:45:05.360Z,58.50
2022-12-24T16:47:37.261Z,58.60
2022-12-24T16:50:11.281Z,58.90
2022-12-24T16:52:37.876Z,59.10
2022-12-24T16:55:04.780Z,59.20
2022-12-24T16:57:33.199Z,59.10
2022-12-24T16:59:59.884Z,60.40
2022-12-24T17:02:26.758Z,59.40
2022-12-24T17:04:53.415Z,59.40
2022-12-24T17:07:20.325Z,59.40
2022-12-24T17:09:46.925Z,59.30
2022-12-24T17:12:14.100Z,59.20
2022-12-24T17:14:40.807Z,59.10
2022-12-24T17:17:07.442Z,59.40
2022-12-24T17:19:34.051Z,60.00
2022-12-24T17:22:00.636Z,60.80
2022-12-24T17:24:27.240Z,59.90
2022-12-24T17:26:53.826Z,60.00
2022-12-24T17:29:20.431Z,59.70
2022-12-24T17:31:47.009Z,59.70
2022-12-24T17:34:13.608Z,59.80
2022-12-24T17:36:40.286Z,60.10
2022-12-24T17:39:06.936Z,59.90
2022-12-24T17:41:33.569Z,59.60
2022-12-24T17:44:00.228Z,60.00
2022-12-24T17:46:26.862Z,59.80
2022-12-24T17:48:53.564Z,60.50
2022-12-24T17:51:21.386Z,60.80
2022-12-24T17:53:48.189Z,60.70
2022-12-24T17:56:15.427Z,60.80
2022-12-24T17:58:42.937Z,60.60
2022-12-24T18:01:13.623Z,60.90
2022-12-24T18:03:40.341Z,59.70
2022-12-24T18:06:08.147Z,59.70
2022-12-24T18:08:34.939Z,59.60
2022-12-24T18:11:13.670Z,59.60
2022-12-24T18:13:40.570Z,59.70
2022-12-24T18:16:19.924Z,59.60
2022-12-24T18:18:46.651Z,59.70
2022-12-24T18:21:13.819Z,59.80
2022-12-24T18:23:43.971Z,59.80
2022-12-24T18:26:10.686Z,59.90
2022-12-24T18:28:37.287Z,59.90
2022-12-24T18:31:05.791Z,59.90
2022-12-24T18:33:32.779Z,59.90
2022-12-24T18:35:59.440Z,60.00
2022-12-24T18:38:26.048Z,59.90
2022-12-24T18:40:52.655Z,60.30
2022-12-24T18:43:19.265Z,60.00
2022-12-24T18:45:46.160Z,60.00
2022-12-24T18:48:12.990Z,60.00
2022-12-24T18:50:40.216Z,60.30
2022-12-24T18:53:07.249Z,60.40
2022-12-24T18:55:37.608Z,61.00
2022-12-24T18:58:04.261Z,60.00
2022-12-24T19:00:30.891Z,59.90
2022-12-24T19:02:57.549Z,59.90
2022-12-24T19:05:24.211Z,60.10
2022-12-24T19:07:50.829Z,60.00
2022-12-24T19:10:17.473Z,60.00
2022-12-24T19:12:44.087Z,60.10
2022-12-24T19:15:10.948Z,59.90
2022-12-24T19:17:37.545Z,60.00
2022-12-24T19:20:04.585Z,59.90
2022-12-24T19:22:31.171Z,60.00
2022-12-24T19:24:57.767Z,59.90
2022-12-24T19:27:24.382Z,59.90
2022-12-24T19:29:51.059Z,59.80
2022-12-24T19:32:17.742Z,60.00
2022-12-24T19:34:44.327Z,59.90
2022-12-24T19:37:11.231Z,60.00
2022-12-24T19:39:37.826Z,60.10
2022-12-24T19:42:04.534Z,60.30
2022-12-24T19:44:31.139Z,60.90
2022-12-24T19:46:57.757Z,60.50
2022-12-24T19:49:24.346Z,60.30
2022-12-24T19:51:50.956Z,60.10
2022-12-24T19:54:19.298Z,60.10
2022-12-24T19:56:46.205Z,60.10
2022-12-24T19:59:12.809Z,60.00
2022-12-24T20:01:39.737Z,60.00
2022-12-24T20:04:06.574Z,60.00
2022-12-24T20:06:34.270Z,59.90
2022-12-24T20:09:05.448Z,59.90
2022-12-24T20:11:32.205Z,59.90
2022-12-24T20:13:59.723Z,59.90
2022-12-24T20:16:26.639Z,59.90
2022-12-24T20:19:11.941Z,59.90
2022-12-24T20:21:38.551Z,59.90
2022-12-24T20:24:06.561Z,59.90
2022-12-24T20:26:33.246Z,60.00
2022-12-24T20:29:03.675Z,59.90
2022-12-24T20:31:30.396Z,60.00
2022-12-24T20:33:57.775Z,59.70
2022-12-24T20:36:24.511Z,59.60
2022-12-24T20:38:51.234Z,59.70
2022-12-24T20:41:18.927Z,59.70
2022-12-24T20:43:48.522Z,59.80
2022-12-24T20:46:16.472Z,59.70
2022-12-24T20:48:43.202Z,59.70
2022-12-24T20:51:11.473Z,59.60
2022-12-24T20:53:39.161Z,59.60
2022-12-24T20:56:06.118Z,59.70
2022-12-24T20:58:32.714Z,59.60
2022-12-24T21:00:59.351Z,59.70
2022-12-24T21:03:26.099Z,59.70
2022-12-24T21:05:53.109Z,59.90
2022-12-24T21:08:19.746Z,59.90
2022-12-24T21:10:46.434Z,59.90
2022-12-24T21:13:13.025Z,60.00
2022-12-24T21:15:39.932Z,59.90
2022-12-24T21:18:11.617Z,59.90
2022-12-24T21:20:41.877Z,59.90
2022-12-24T21:23:09.237Z,60.00
2022-12-24T21:25:35.956Z,59.90
2022-12-24T21:28:02.622Z,59.90
2022-12-24T21:30:29.330Z,59.60
2022-12-24T21:32:56.007Z,59.80
2022-12-24T21:35:22.611Z,59.80
2022-12-24T21:37:49.246Z,59.90
2022-12-24T21:40:15.833Z,59.90
2022-12-24T21:42:42.446Z,59.90
2022-12-24T21:45:09.681Z,59.90
2022-12-24T21:47:38.070Z,59.90
2022-12-24T21:50:26.834Z,59.90
2022-12-24T21:53:18.492Z,59.90
2022-12-24T21:55:45.117Z,59.90
2022-12-24T21:58:11.772Z,59.90
2022-12-24T22:00:38.356Z,60.00
2022-12-24T22:03:05.084Z,59.80
2022-12-24T22:05:32.303Z,59.80
2022-12-24T22:08:17.485Z,59.80
2022-12-24T22:11:02.905Z,59.80
2022-12-24T22:13:30.091Z,59.80
2022-12-24T22:15:56.790Z,59.90
2022-12-24T22:18:25.094Z,60.00
2022-12-24T22:20:51.794Z,60.00
2022-12-24T22:23:18.475Z,60.00
2022-12-24T22:25:45.641Z,60.00
2022-12-24T22:28:12.313Z,59.50
2022-12-24T22:30:42.003Z,59.20
2022-12-24T22:33:08.929Z,58.80
2022-12-24T22:35:39.321Z,58.80
2022-12-24T22:38:07.423Z,59.00
2022-12-24T22:40:34.009Z,59.10
2022-12-24T22:43:00.641Z,59.10
2022-12-24T22:45:27.249Z,59.10
2022-12-24T22:47:53.857Z,59.10
2022-12-24T22:50:20.506Z,59.20
2022-12-24T22:52:47.116Z,59.10
2022-12-24T22:55:13.699Z,59.20
2022-12-24T22:57:40.295Z,59.20
2022-12-24T23:00:37.022Z,59.20
2022-12-24T23:03:04.648Z,59.20
2022-12-24T23:05:31.513Z,59.20
2022-12-24T23:07:58.203Z,59.30
2022-12-24T23:10:24.817Z,59.20
2022-12-24T23:13:14.898Z,59.20
2022-12-24T23:15:41.902Z,59.20
2022-12-24T23:18:08.638Z,59.30
2022-12-24T23:20:42.979Z,59.20
2022-12-24T23:23:09.593Z,59.30
2022-12-24T23:25:36.181Z,59.20
2022-12-24T23:28:02.785Z,59.30
2022-12-24T23:30:29.375Z,59.20
2022-12-24T23:32:55.989Z,59.20
2022-12-24T23:35:22.591Z,59.20
2022-12-24T23:37:49.191Z,59.20
2022-12-24T23:40:15.884Z,59.30
2022-12-24T23:42:42.527Z,59.10
2022-12-24T23:45:09.515Z,59.10
2022-12-24T23:47:36.116Z,59.20
2022-12-24T23:50:03.148Z,59.20
2022-12-24T23:52:29.766Z,59.20
2022-12-24T23:54:56.391Z,59.20
2022-12-24T23:57:22.985Z,59.20
2022-12-24T23:59:49.616Z,59.20
